sensor_id;sensor_type;location;lat;lon;timestamp;P1;durP1;ratioP1;P2;durP2;ratioP2
16665;SDS011;8446;50.998;6.250;2023-04-03T00:01:29;4.20;;;3.53;;
16665;SDS011;8446;50.998;6.250;2023-04-03T00:03:56;6.03;;;2.83;;
16665;SDS011;8446;50.998;6.250;2023-04-03T00:06:23;5.43;;;3.00;;
16665;SDS011;8446;50.998;6.250;2023-04-03T00:08:51;6.13;;;3.13;;
16665;SDS011;8446;50.998;6.250;2023-04-03T00:11:18;4.30;;;2.92;;
16665;SDS011;8446;50.998;6.250;2023-04-03T00:13:46;3.22;;;2.92;;
16665;SDS011;8446;50.998;6.250;2023-04-03T00:16:15;3.72;;;3.33;;
16665;SDS011;8446;50.998;6.250;2023-04-03T00:18:42;4.60;;;3.45;;
16665;SDS011;8446;50.998;6.250;2023-04-03T00:21:10;5.55;;;3.17;;
16665;SDS011;8446;50.998;6.250;2023-04-03T00:23:38;5.13;;;3.80;;
16665;SDS011;8446;50.998;6.250;2023-04-03T00:26:05;8.48;;;3.63;;
16665;SDS011;8446;50.998;6.250;2023-04-03T00:28:32;6.10;;;3.22;;
16665;SDS011;8446;50.998;6.250;2023-04-03T00:31:00;8.40;;;3.58;;
16665;SDS011;8446;50.998;6.250;2023-04-03T00:33:28;5.88;;;2.78;;
16665;SDS011;8446;50.998;6.250;2023-04-03T00:35:55;3.22;;;2.92;;
16665;SDS011;8446;50.998;6.250;2023-04-03T00:38:22;4.43;;;3.20;;
16665;SDS011;8446;50.998;6.250;2023-04-03T00:40:49;6.82;;;3.53;;
16665;SDS011;8446;50.998;6.250;2023-04-03T00:43:18;4.18;;;3.53;;
16665;SDS011;8446;50.998;6.250;2023-04-03T00:45:45;4.32;;;3.70;;
16665;SDS011;8446;50.998;6.250;2023-04-03T00:48:13;5.05;;;3.65;;
16665;SDS011;8446;50.998;6.250;2023-04-03T00:50:43;10.27;;;3.13;;
16665;SDS011;8446;50.998;6.250;2023-04-03T00:53:11;6.53;;;3.50;;
16665;SDS011;8446;50.998;6.250;2023-04-03T00:55:39;3.53;;;3.15;;
16665;SDS011;8446;50.998;6.250;2023-04-03T00:58:07;3.30;;;3.00;;
16665;SDS011;8446;50.998;6.250;2023-04-03T01:00:35;9.55;;;3.90;;
16665;SDS011;8446;50.998;6.250;2023-04-03T01:03:03;11.18;;;4.43;;
16665;SDS011;8446;50.998;6.250;2023-04-03T01:05:30;4.82;;;3.65;;
16665;SDS011;8446;50.998;6.250;2023-04-03T01:07:59;7.25;;;3.30;;
16665;SDS011;8446;50.998;6.250;2023-04-03T01:10:26;8.93;;;3.60;;
16665;SDS011;8446;50.998;6.250;2023-04-03T01:12:54;4.88;;;3.58;;
16665;SDS011;8446;50.998;6.250;2023-04-03T01:15:21;5.95;;;3.72;;
16665;SDS011;8446;50.998;6.250;2023-04-03T01:17:49;13.95;;;3.70;;
16665;SDS011;8446;50.998;6.250;2023-04-03T01:23:10;5.95;;;3.90;;
16665;SDS011;8446;50.998;6.250;2023-04-03T01:25:40;6.13;;;4.15;;
16665;SDS011;8446;50.998;6.250;2023-04-03T01:28:08;6.05;;;4.80;;
16665;SDS011;8446;50.998;6.250;2023-04-03T01:30:36;5.93;;;4.50;;
16665;SDS011;8446;50.998;6.250;2023-04-03T01:33:09;6.25;;;4.25;;
16665;SDS011;8446;50.998;6.250;2023-04-03T01:35:37;11.13;;;4.60;;
16665;SDS011;8446;50.998;6.250;2023-04-03T01:38:04;8.32;;;4.68;;
16665;SDS011;8446;50.998;6.250;2023-04-03T01:40:32;8.88;;;4.43;;
16665;SDS011;8446;50.998;6.250;2023-04-03T01:42:59;12.02;;;4.72;;
16665;SDS011;8446;50.998;6.250;2023-04-03T01:45:26;8.50;;;4.25;;
16665;SDS011;8446;50.998;6.250;2023-04-03T01:47:53;7.05;;;3.50;;
16665;SDS011;8446;50.998;6.250;2023-04-03T01:50:22;6.50;;;4.47;;
16665;SDS011;8446;50.998;6.250;2023-04-03T01:52:49;6.80;;;4.20;;
16665;SDS011;8446;50.998;6.250;2023-04-03T01:55:16;7.43;;;4.40;;
16665;SDS011;8446;50.998;6.250;2023-04-03T01:57:43;6.22;;;4.60;;
16665;SDS011;8446;50.998;6.250;2023-04-03T02:00:11;4.55;;;4.15;;
16665;SDS011;8446;50.998;6.250;2023-04-03T02:02:38;6.97;;;4.45;;
16665;SDS011;8446;50.998;6.250;2023-04-03T02:05:05;5.82;;;4.60;;
16665;SDS011;8446;50.998;6.250;2023-04-03T02:07:34;7.00;;;4.97;;
16665;SDS011;8446;50.998;6.250;2023-04-03T02:10:01;7.88;;;4.65;;
16665;SDS011;8446;50.998;6.250;2023-04-03T02:12:29;5.35;;;4.20;;
16665;SDS011;8446;50.998;6.250;2023-04-03T02:14:56;10.38;;;5.00;;
16665;SDS011;8446;50.998;6.250;2023-04-03T02:17:23;5.57;;;4.32;;
16665;SDS011;8446;50.998;6.250;2023-04-03T02:19:50;6.07;;;4.20;;
16665;SDS011;8446;50.998;6.250;2023-04-03T02:22:17;5.97;;;4.80;;
16665;SDS011;8446;50.998;6.250;2023-04-03T02:24:46;5.55;;;4.57;;
16665;SDS011;8446;50.998;6.250;2023-04-03T02:27:13;7.05;;;5.20;;
16665;SDS011;8446;50.998;6.250;2023-04-03T02:29:40;8.93;;;5.90;;
16665;SDS011;8446;50.998;6.250;2023-04-03T02:32:08;6.88;;;4.65;;
16665;SDS011;8446;50.998;6.250;2023-04-03T02:34:35;4.85;;;4.35;;
16665;SDS011;8446;50.998;6.250;2023-04-03T02:37:02;15.65;;;5.20;;
16665;SDS011;8446;50.998;6.250;2023-04-03T02:39:29;10.60;;;5.30;;
16665;SDS011;8446;50.998;6.250;2023-04-03T02:41:57;8.45;;;5.15;;
16665;SDS011;8446;50.998;6.250;2023-04-03T02:44:24;6.70;;;5.70;;
16665;SDS011;8446;50.998;6.250;2023-04-03T02:46:52;7.88;;;5.88;;
16665;SDS011;8446;50.998;6.250;2023-04-03T02:49:19;7.30;;;5.72;;
16665;SDS011;8446;50.998;6.250;2023-04-03T02:51:46;8.88;;;5.95;;
16665;SDS011;8446;50.998;6.250;2023-04-03T02:54:13;8.90;;;6.07;;
16665;SDS011;8446;50.998;6.250;2023-04-03T02:56:40;10.95;;;6.25;;
16665;SDS011;8446;50.998;6.250;2023-04-03T02:59:09;11.18;;;7.22;;
16665;SDS011;8446;50.998;6.250;2023-04-03T03:01:36;11.10;;;7.10;;
16665;SDS011;8446;50.998;6.250;2023-04-03T03:04:03;9.35;;;6.30;;
16665;SDS011;8446;50.998;6.250;2023-04-03T03:06:30;10.35;;;7.65;;
16665;SDS011;8446;50.998;6.250;2023-04-03T03:08:57;10.90;;;5.68;;
16665;SDS011;8446;50.998;6.250;2023-04-03T03:11:24;9.05;;;6.28;;
16665;SDS011;8446;50.998;6.250;2023-04-03T03:13:51;7.85;;;5.85;;
16665;SDS011;8446;50.998;6.250;2023-04-03T03:16:20;9.88;;;5.88;;
16665;SDS011;8446;50.998;6.250;2023-04-03T03:18:47;9.68;;;5.45;;
16665;SDS011;8446;50.998;6.250;2023-04-03T03:21:14;7.00;;;5.20;;
16665;SDS011;8446;50.998;6.250;2023-04-03T03:23:41;12.57;;;6.25;;
16665;SDS011;8446;50.998;6.250;2023-04-03T03:26:09;7.97;;;5.57;;
16665;SDS011;8446;50.998;6.250;2023-04-03T03:28:37;5.85;;;4.95;;
16665;SDS011;8446;50.998;6.250;2023-04-03T03:31:05;8.23;;;5.22;;
16665;SDS011;8446;50.998;6.250;2023-04-03T03:33:34;5.90;;;4.82;;
16665;SDS011;8446;50.998;6.250;2023-04-03T03:36:01;8.02;;;5.65;;
16665;SDS011;8446;50.998;6.250;2023-04-03T03:38:28;7.82;;;4.72;;
16665;SDS011;8446;50.998;6.250;2023-04-03T03:40:55;12.07;;;5.38;;
16665;SDS011;8446;50.998;6.250;2023-04-03T03:43:22;6.85;;;5.03;;
16665;SDS011;8446;50.998;6.250;2023-04-03T03:45:50;6.68;;;5.10;;
16665;SDS011;8446;50.998;6.250;2023-04-03T03:48:18;6.53;;;4.75;;
16665;SDS011;8446;50.998;6.250;2023-04-03T03:50:47;6.90;;;4.97;;
16665;SDS011;8446;50.998;6.250;2023-04-03T03:53:14;6.38;;;5.40;;
16665;SDS011;8446;50.998;6.250;2023-04-03T03:55:42;7.25;;;5.38;;
16665;SDS011;8446;50.998;6.250;2023-04-03T03:58:09;8.73;;;5.72;;
16665;SDS011;8446;50.998;6.250;2023-04-03T04:00:36;7.90;;;5.78;;
16665;SDS011;8446;50.998;6.250;2023-04-03T04:03:03;5.63;;;4.22;;
16665;SDS011;8446;50.998;6.250;2023-04-03T04:05:30;8.30;;;6.45;;
16665;SDS011;8446;50.998;6.250;2023-04-03T04:07:59;5.68;;;5.10;;
16665;SDS011;8446;50.998;6.250;2023-04-03T04:10:26;9.35;;;5.68;;
16665;SDS011;8446;50.998;6.250;2023-04-03T04:12:53;8.45;;;6.00;;
16665;SDS011;8446;50.998;6.250;2023-04-03T04:15:20;7.68;;;5.28;;
16665;SDS011;8446;50.998;6.250;2023-04-03T04:17:48;13.75;;;5.97;;
16665;SDS011;8446;50.998;6.250;2023-04-03T04:20:15;5.78;;;5.18;;
16665;SDS011;8446;50.998;6.250;2023-04-03T04:22:42;7.10;;;5.20;;
16665;SDS011;8446;50.998;6.250;2023-04-03T04:25:10;9.30;;;5.35;;
16665;SDS011;8446;50.998;6.250;2023-04-03T04:27:38;8.82;;;6.05;;
16665;SDS011;8446;50.998;6.250;2023-04-03T04:30:06;6.22;;;4.95;;
16665;SDS011;8446;50.998;6.250;2023-04-03T04:32:33;7.85;;;5.93;;
16665;SDS011;8446;50.998;6.250;2023-04-03T04:35:00;12.00;;;5.68;;
16665;SDS011;8446;50.998;6.250;2023-04-03T04:37:27;12.07;;;6.53;;
16665;SDS011;8446;50.998;6.250;2023-04-03T04:39:55;8.52;;;5.50;;
16665;SDS011;8446;50.998;6.250;2023-04-03T04:42:23;10.98;;;6.20;;
16665;SDS011;8446;50.998;6.250;2023-04-03T04:44:51;7.78;;;5.60;;
16665;SDS011;8446;50.998;6.250;2023-04-03T04:47:18;17.73;;;5.68;;
16665;SDS011;8446;50.998;6.250;2023-04-03T04:49:45;8.82;;;5.65;;
16665;SDS011;8446;50.998;6.250;2023-04-03T04:52:13;8.57;;;6.00;;
16665;SDS011;8446;50.998;6.250;2023-04-03T04:54:40;7.75;;;5.20;;
16665;SDS011;8446;50.998;6.250;2023-04-03T04:57:07;12.15;;;6.63;;
16665;SDS011;8446;50.998;6.250;2023-04-03T04:59:36;9.13;;;6.07;;
16665;SDS011;8446;50.998;6.250;2023-04-03T05:02:03;8.40;;;6.30;;
16665;SDS011;8446;50.998;6.250;2023-04-03T05:04:31;7.22;;;5.53;;
16665;SDS011;8446;50.998;6.250;2023-04-03T05:06:58;7.10;;;6.20;;
16665;SDS011;8446;50.998;6.250;2023-04-03T05:09:25;9.63;;;6.95;;
16665;SDS011;8446;50.998;6.250;2023-04-03T05:11:52;11.60;;;6.60;;
16665;SDS011;8446;50.998;6.250;2023-04-03T05:14:21;7.72;;;5.75;;
16665;SDS011;8446;50.998;6.250;2023-04-03T05:16:49;9.55;;;6.00;;
16665;SDS011;8446;50.998;6.250;2023-04-03T05:19:18;8.55;;;6.00;;
16665;SDS011;8446;50.998;6.250;2023-04-03T05:21:46;8.75;;;5.38;;
16665;SDS011;8446;50.998;6.250;2023-04-03T05:24:13;7.75;;;5.78;;
16665;SDS011;8446;50.998;6.250;2023-04-03T05:26:41;10.55;;;6.57;;
16665;SDS011;8446;50.998;6.250;2023-04-03T05:29:08;6.63;;;5.25;;
16665;SDS011;8446;50.998;6.250;2023-04-03T05:31:35;9.40;;;5.95;;
16665;SDS011;8446;50.998;6.250;2023-04-03T05:34:03;6.93;;;5.20;;
16665;SDS011;8446;50.998;6.250;2023-04-03T05:36:31;7.60;;;5.20;;
16665;SDS011;8446;50.998;6.250;2023-04-03T05:38:58;10.38;;;5.85;;
16665;SDS011;8446;50.998;6.250;2023-04-03T05:41:25;8.95;;;5.13;;
16665;SDS011;8446;50.998;6.250;2023-04-03T05:43:52;7.80;;;5.28;;
16665;SDS011;8446;50.998;6.250;2023-04-03T05:46:19;8.80;;;5.80;;
16665;SDS011;8446;50.998;6.250;2023-04-03T05:48:47;8.10;;;5.20;;
16665;SDS011;8446;50.998;6.250;2023-04-03T05:51:17;7.20;;;5.25;;
16665;SDS011;8446;50.998;6.250;2023-04-03T05:53:44;7.70;;;4.80;;
16665;SDS011;8446;50.998;6.250;2023-04-03T05:56:12;9.75;;;6.35;;
16665;SDS011;8446;50.998;6.250;2023-04-03T05:58:39;7.95;;;4.97;;
16665;SDS011;8446;50.998;6.250;2023-04-03T06:01:06;9.38;;;4.88;;
16665;SDS011;8446;50.998;6.250;2023-04-03T06:03:34;7.03;;;4.18;;
16665;SDS011;8446;50.998;6.250;2023-04-03T06:06:02;6.43;;;5.30;;
16665;SDS011;8446;50.998;6.250;2023-04-03T06:08:30;6.70;;;4.70;;
16665;SDS011;8446;50.998;6.250;2023-04-03T06:10:58;8.32;;;4.75;;
16665;SDS011;8446;50.998;6.250;2023-04-03T06:13:27;7.18;;;4.85;;
16665;SDS011;8446;50.998;6.250;2023-04-03T06:15:54;11.35;;;5.47;;
16665;SDS011;8446;50.998;6.250;2023-04-03T06:18:22;10.68;;;5.05;;
16665;SDS011;8446;50.998;6.250;2023-04-03T06:20:49;6.18;;;4.47;;
16665;SDS011;8446;50.998;6.250;2023-04-03T06:23:16;7.13;;;4.45;;
16665;SDS011;8446;50.998;6.250;2023-04-03T06:25:45;14.77;;;4.82;;
16665;SDS011;8446;50.998;6.250;2023-04-03T06:28:12;5.38;;;4.18;;
16665;SDS011;8446;50.998;6.250;2023-04-03T06:30:39;7.20;;;4.55;;
16665;SDS011;8446;50.998;6.250;2023-04-03T06:33:07;8.57;;;4.38;;
16665;SDS011;8446;50.998;6.250;2023-04-03T06:35:34;9.68;;;5.22;;
16665;SDS011;8446;50.998;6.250;2023-04-03T06:38:03;4.78;;;3.60;;
16665;SDS011;8446;50.998;6.250;2023-04-03T06:40:34;4.32;;;3.40;;
16665;SDS011;8446;50.998;6.250;2023-04-03T06:43:03;7.13;;;3.47;;
16665;SDS011;8446;50.998;6.250;2023-04-03T06:45:30;5.97;;;3.80;;
16665;SDS011;8446;50.998;6.250;2023-04-03T06:47:57;5.60;;;3.78;;
16665;SDS011;8446;50.998;6.250;2023-04-03T06:50:25;5.32;;;3.55;;
16665;SDS011;8446;50.998;6.250;2023-04-03T06:52:52;4.50;;;3.60;;
16665;SDS011;8446;50.998;6.250;2023-04-03T06:55:19;5.90;;;3.45;;
16665;SDS011;8446;50.998;6.250;2023-04-03T06:57:46;5.85;;;3.63;;
16665;SDS011;8446;50.998;6.250;2023-04-03T07:00:15;8.43;;;4.00;;
16665;SDS011;8446;50.998;6.250;2023-04-03T07:02:42;4.10;;;2.92;;
16665;SDS011;8446;50.998;6.250;2023-04-03T07:05:10;5.88;;;3.40;;
16665;SDS011;8446;50.998;6.250;2023-04-03T07:07:38;3.55;;;3.20;;
16665;SDS011;8446;50.998;6.250;2023-04-03T07:10:06;3.88;;;2.78;;
16665;SDS011;8446;50.998;6.250;2023-04-03T07:12:34;8.15;;;3.47;;
16665;SDS011;8446;50.998;6.250;2023-04-03T07:15:01;11.13;;;3.35;;
16665;SDS011;8446;50.998;6.250;2023-04-03T07:17:30;5.47;;;3.20;;
16665;SDS011;8446;50.998;6.250;2023-04-03T07:19:57;4.20;;;2.92;;
16665;SDS011;8446;50.998;6.250;2023-04-03T07:22:25;4.47;;;2.40;;
16665;SDS011;8446;50.998;6.250;2023-04-03T07:24:52;4.90;;;2.88;;
16665;SDS011;8446;50.998;6.250;2023-04-03T07:27:19;5.30;;;3.70;;
16665;SDS011;8446;50.998;6.250;2023-04-03T07:29:46;10.55;;;3.35;;
16665;SDS011;8446;50.998;6.250;2023-04-03T07:32:14;7.10;;;2.67;;
16665;SDS011;8446;50.998;6.250;2023-04-03T07:34:43;10.57;;;4.47;;
16665;SDS011;8446;50.998;6.250;2023-04-03T07:37:11;2.92;;;2.70;;
16665;SDS011;8446;50.998;6.250;2023-04-03T07:39:38;5.70;;;3.38;;
16665;SDS011;8446;50.998;6.250;2023-04-03T07:42:05;5.50;;;2.90;;
16665;SDS011;8446;50.998;6.250;2023-04-03T07:44:32;5.97;;;3.30;;
16665;SDS011;8446;50.998;6.250;2023-04-03T07:47:00;7.15;;;3.20;;
16665;SDS011;8446;50.998;6.250;2023-04-03T07:49:27;4.32;;;2.90;;
16665;SDS011;8446;50.998;6.250;2023-04-03T07:51:56;4.20;;;3.00;;
16665;SDS011;8446;50.998;6.250;2023-04-03T07:54:23;5.85;;;2.25;;
16665;SDS011;8446;50.998;6.250;2023-04-03T07:56:50;3.83;;;2.28;;
16665;SDS011;8446;50.998;6.250;2023-04-03T07:59:18;3.60;;;3.03;;
16665;SDS011;8446;50.998;6.250;2023-04-03T08:01:45;3.28;;;2.33;;
16665;SDS011;8446;50.998;6.250;2023-04-03T08:04:12;8.13;;;2.67;;
16665;SDS011;8446;50.998;6.250;2023-04-03T08:06:39;3.83;;;2.45;;
16665;SDS011;8446;50.998;6.250;2023-04-03T08:09:08;2.70;;;2.25;;
16665;SDS011;8446;50.998;6.250;2023-04-03T08:11:35;5.90;;;2.92;;
16665;SDS011;8446;50.998;6.250;2023-04-03T08:14:02;3.85;;;2.60;;
16665;SDS011;8446;50.998;6.250;2023-04-03T08:16:29;3.47;;;2.38;;
16665;SDS011;8446;50.998;6.250;2023-04-03T08:18:56;4.60;;;2.80;;
16665;SDS011;8446;50.998;6.250;2023-04-03T08:21:24;6.70;;;2.20;;
16665;SDS011;8446;50.998;6.250;2023-04-03T08:23:51;6.72;;;3.20;;
16665;SDS011;8446;50.998;6.250;2023-04-03T08:26:20;5.10;;;2.30;;
16665;SDS011;8446;50.998;6.250;2023-04-03T08:28:47;5.30;;;2.80;;
16665;SDS011;8446;50.998;6.250;2023-04-03T08:31:15;6.15;;;2.65;;
16665;SDS011;8446;50.998;6.250;2023-04-03T08:33:44;5.53;;;3.30;;
16665;SDS011;8446;50.998;6.250;2023-04-03T08:36:18;3.42;;;2.22;;
16665;SDS011;8446;50.998;6.250;2023-04-03T08:38:46;6.22;;;2.13;;
16665;SDS011;8446;50.998;6.250;2023-04-03T08:41:14;2.42;;;2.20;;
16665;SDS011;8446;50.998;6.250;2023-04-03T08:43:46;4.43;;;2.30;;
16665;SDS011;8446;50.998;6.250;2023-04-03T08:46:20;7.68;;;1.70;;
16665;SDS011;8446;50.998;6.250;2023-04-03T08:48:49;7.72;;;2.13;;
16665;SDS011;8446;50.998;6.250;2023-04-03T08:51:18;10.60;;;1.70;;
16665;SDS011;8446;50.998;6.250;2023-04-03T08:53:49;6.80;;;1.80;;
16665;SDS011;8446;50.998;6.250;2023-04-03T08:56:21;3.43;;;1.40;;
16665;SDS011;8446;50.998;6.250;2023-04-03T08:58:50;3.63;;;2.03;;
16665;SDS011;8446;50.998;6.250;2023-04-03T09:01:20;5.27;;;2.60;;
16665;SDS011;8446;50.998;6.250;2023-04-03T09:03:49;3.80;;;1.63;;
16665;SDS011;8446;50.998;6.250;2023-04-03T09:06:17;4.57;;;2.30;;
16665;SDS011;8446;50.998;6.250;2023-04-03T09:08:47;3.20;;;1.63;;
16665;SDS011;8446;50.998;6.250;2023-04-03T09:11:18;5.47;;;1.70;;
16665;SDS011;8446;50.998;6.250;2023-04-03T09:13:51;2.70;;;1.03;;
16665;SDS011;8446;50.998;6.250;2023-04-03T09:16:25;2.70;;;2.50;;
16665;SDS011;8446;50.998;6.250;2023-04-03T09:18:55;4.00;;;1.83;;
16665;SDS011;8446;50.998;6.250;2023-04-03T09:21:24;3.30;;;2.20;;
16665;SDS011;8446;50.998;6.250;2023-04-03T09:23:52;4.00;;;1.50;;
16665;SDS011;8446;50.998;6.250;2023-04-03T09:26:23;9.00;;;1.43;;
16665;SDS011;8446;50.998;6.250;2023-04-03T09:28:52;2.20;;;1.60;;
16665;SDS011;8446;50.998;6.250;2023-04-03T09:31:22;8.90;;;1.40;;
16665;SDS011;8446;50.998;6.250;2023-04-03T09:33:50;2.27;;;1.30;;
16665;SDS011;8446;50.998;6.250;2023-04-03T09:39:02;2.27;;;1.33;;
16665;SDS011;8446;50.998;6.250;2023-04-03T09:41:30;3.13;;;1.90;;
16665;SDS011;8446;50.998;6.250;2023-04-03T09:43:59;4.33;;;1.60;;
16665;SDS011;8446;50.998;6.250;2023-04-03T09:46:31;1.40;;;1.07;;
16665;SDS011;8446;50.998;6.250;2023-04-03T09:48:59;5.07;;;1.50;;
16665;SDS011;8446;50.998;6.250;2023-04-03T09:51:26;1.27;;;1.17;;
16665;SDS011;8446;50.998;6.250;2023-04-03T09:53:54;3.20;;;1.40;;
16665;SDS011;8446;50.998;6.250;2023-04-03T09:56:23;2.10;;;1.10;;
16665;SDS011;8446;50.998;6.250;2023-04-03T09:58:51;3.57;;;1.37;;
16665;SDS011;8446;50.998;6.250;2023-04-03T10:01:28;3.07;;;1.13;;
16665;SDS011;8446;50.998;6.250;2023-04-03T10:04:02;2.43;;;1.23;;
16665;SDS011;8446;50.998;6.250;2023-04-03T10:06:31;3.03;;;1.00;;
16665;SDS011;8446;50.998;6.250;2023-04-03T10:09:01;2.70;;;1.20;;
16665;SDS011;8446;50.998;6.250;2023-04-03T10:11:29;1.20;;;1.10;;
16665;SDS011;8446;50.998;6.250;2023-04-03T10:13:57;2.53;;;1.07;;
16665;SDS011;8446;50.998;6.250;2023-04-03T10:16:27;1.80;;;1.20;;
16665;SDS011;8446;50.998;6.250;2023-04-03T10:19:02;4.67;;;1.40;;
16665;SDS011;8446;50.998;6.250;2023-04-03T10:21:33;2.53;;;1.17;;
16665;SDS011;8446;50.998;6.250;2023-04-03T10:24:05;3.10;;;1.63;;
16665;SDS011;8446;50.998;6.250;2023-04-03T10:26:36;8.50;;;1.50;;
16665;SDS011;8446;50.998;6.250;2023-04-03T10:29:09;2.07;;;1.03;;
16665;SDS011;8446;50.998;6.250;2023-04-03T10:31:41;3.17;;;1.53;;
16665;SDS011;8446;50.998;6.250;2023-04-03T10:34:13;8.70;;;1.43;;
16665;SDS011;8446;50.998;6.250;2023-04-03T10:36:44;6.10;;;1.10;;
16665;SDS011;8446;50.998;6.250;2023-04-03T10:39:15;3.73;;;1.60;;
16665;SDS011;8446;50.998;6.250;2023-04-03T10:41:47;1.70;;;1.10;;
16665;SDS011;8446;50.998;6.250;2023-04-03T10:44:19;3.13;;;1.37;;
16665;SDS011;8446;50.998;6.250;2023-04-03T10:46:49;2.40;;;1.10;;
16665;SDS011;8446;50.998;6.250;2023-04-03T10:49:22;5.53;;;1.40;;
16665;SDS011;8446;50.998;6.250;2023-04-03T10:51:53;5.20;;;1.30;;
16665;SDS011;8446;50.998;6.250;2023-04-03T10:54:26;1.50;;;1.07;;
16665;SDS011;8446;50.998;6.250;2023-04-03T10:56:56;2.30;;;1.30;;
16665;SDS011;8446;50.998;6.250;2023-04-03T10:59:25;2.30;;;1.30;;
16665;SDS011;8446;50.998;6.250;2023-04-03T11:01:56;3.23;;;1.20;;
16665;SDS011;8446;50.998;6.250;2023-04-03T11:04:24;4.40;;;1.20;;
16665;SDS011;8446;50.998;6.250;2023-04-03T11:06:54;2.20;;;1.23;;
16665;SDS011;8446;50.998;6.250;2023-04-03T11:09:25;5.20;;;1.43;;
16665;SDS011;8446;50.998;6.250;2023-04-03T11:11:54;2.10;;;1.20;;
16665;SDS011;8446;50.998;6.250;2023-04-03T11:14:24;4.00;;;1.60;;
16665;SDS011;8446;50.998;6.250;2023-04-03T11:16:55;3.10;;;1.67;;
16665;SDS011;8446;50.998;6.250;2023-04-03T11:19:27;3.10;;;1.33;;
16665;SDS011;8446;50.998;6.250;2023-04-03T11:22:00;1.53;;;1.10;;
16665;SDS011;8446;50.998;6.250;2023-04-03T11:24:31;3.07;;;1.43;;
16665;SDS011;8446;50.998;6.250;2023-04-03T11:26:59;3.00;;;1.33;;
16665;SDS011;8446;50.998;6.250;2023-04-03T11:29:29;1.03;;;0.97;;
16665;SDS011;8446;50.998;6.250;2023-04-03T11:32:02;4.70;;;1.10;;
16665;SDS011;8446;50.998;6.250;2023-04-03T11:34:35;3.90;;;1.70;;
16665;SDS011;8446;50.998;6.250;2023-04-03T11:37:05;2.07;;;1.13;;
16665;SDS011;8446;50.998;6.250;2023-04-03T11:39:37;1.50;;;1.40;;
16665;SDS011;8446;50.998;6.250;2023-04-03T11:42:14;1.40;;;1.20;;
16665;SDS011;8446;50.998;6.250;2023-04-03T11:44:42;4.10;;;1.60;;
16665;SDS011;8446;50.998;6.250;2023-04-03T11:47:09;2.27;;;1.30;;
16665;SDS011;8446;50.998;6.250;2023-04-03T11:49:51;4.93;;;1.70;;
16665;SDS011;8446;50.998;6.250;2023-04-03T11:55:34;1.67;;;1.37;;
16665;SDS011;8446;50.998;6.250;2023-04-03T11:58:03;2.50;;;1.40;;
16665;SDS011;8446;50.998;6.250;2023-04-03T12:00:47;6.30;;;1.33;;
16665;SDS011;8446;50.998;6.250;2023-04-03T12:03:35;2.53;;;1.50;;
16665;SDS011;8446;50.998;6.250;2023-04-03T12:09:23;3.63;;;2.00;;
16665;SDS011;8446;50.998;6.250;2023-04-03T12:11:51;4.13;;;1.50;;
16665;SDS011;8446;50.998;6.250;2023-04-03T12:14:20;7.50;;;1.63;;
16665;SDS011;8446;50.998;6.250;2023-04-03T12:16:49;2.53;;;1.33;;
16665;SDS011;8446;50.998;6.250;2023-04-03T12:19:31;3.70;;;1.30;;
16665;SDS011;8446;50.998;6.250;2023-04-03T12:22:12;2.37;;;2.07;;
16665;SDS011;8446;50.998;6.250;2023-04-03T12:24:40;2.60;;;1.67;;
16665;SDS011;8446;50.998;6.250;2023-04-03T12:27:17;3.97;;;1.10;;
16665;SDS011;8446;50.998;6.250;2023-04-03T12:29:47;2.17;;;1.40;;
16665;SDS011;8446;50.998;6.250;2023-04-03T12:32:19;1.93;;;1.20;;
16665;SDS011;8446;50.998;6.250;2023-04-03T12:37:41;4.43;;;1.63;;
16665;SDS011;8446;50.998;6.250;2023-04-03T12:40:15;3.63;;;2.10;;
16665;SDS011;8446;50.998;6.250;2023-04-03T12:42:55;2.10;;;1.37;;
16665;SDS011;8446;50.998;6.250;2023-04-03T12:45:25;4.00;;;1.60;;
16665;SDS011;8446;50.998;6.250;2023-04-03T12:47:53;4.33;;;1.63;;
16665;SDS011;8446;50.998;6.250;2023-04-03T12:50:21;1.30;;;1.07;;
16665;SDS011;8446;50.998;6.250;2023-04-03T12:52:51;3.60;;;1.10;;
16665;SDS011;8446;50.998;6.250;2023-04-03T12:55:19;1.80;;;1.10;;
16665;SDS011;8446;50.998;6.250;2023-04-03T12:57:47;3.30;;;1.50;;
16665;SDS011;8446;50.998;6.250;2023-04-03T13:00:30;3.13;;;1.13;;
16665;SDS011;8446;50.998;6.250;2023-04-03T13:02:59;1.63;;;1.20;;
16665;SDS011;8446;50.998;6.250;2023-04-03T13:05:26;6.70;;;1.20;;
16665;SDS011;8446;50.998;6.250;2023-04-03T13:07:55;1.73;;;1.10;;
16665;SDS011;8446;50.998;6.250;2023-04-03T13:10:24;4.83;;;1.17;;
16665;SDS011;8446;50.998;6.250;2023-04-03T13:12:52;2.40;;;0.90;;
16665;SDS011;8446;50.998;6.250;2023-04-03T13:15:20;1.30;;;0.90;;
16665;SDS011;8446;50.998;6.250;2023-04-03T13:17:51;1.10;;;1.00;;
16665;SDS011;8446;50.998;6.250;2023-04-03T13:20:20;1.30;;;1.10;;
16665;SDS011;8446;50.998;6.250;2023-04-03T13:22:48;5.30;;;1.27;;
16665;SDS011;8446;50.998;6.250;2023-04-03T13:25:18;4.70;;;1.10;;
16665;SDS011;8446;50.998;6.250;2023-04-03T13:27:46;1.33;;;1.00;;
16665;SDS011;8446;50.998;6.250;2023-04-03T13:30:21;1.33;;;1.10;;
16665;SDS011;8446;50.998;6.250;2023-04-03T13:32:51;2.70;;;1.10;;
16665;SDS011;8446;50.998;6.250;2023-04-03T13:38:19;1.30;;;1.00;;
16665;SDS011;8446;50.998;6.250;2023-04-03T13:40:48;1.93;;;1.63;;
16665;SDS011;8446;50.998;6.250;2023-04-03T13:43:19;7.90;;;1.50;;
16665;SDS011;8446;50.998;6.250;2023-04-03T13:45:58;6.93;;;1.33;;
16665;SDS011;8446;50.998;6.250;2023-04-03T13:48:27;2.07;;;1.30;;
16665;SDS011;8446;50.998;6.250;2023-04-03T13:50:56;3.27;;;1.10;;
16665;SDS011;8446;50.998;6.250;2023-04-03T13:53:24;2.37;;;1.10;;
16665;SDS011;8446;50.998;6.250;2023-04-03T13:55:54;2.70;;;1.50;;
16665;SDS011;8446;50.998;6.250;2023-04-03T13:58:23;2.70;;;1.37;;
16665;SDS011;8446;50.998;6.250;2023-04-03T14:00:51;3.23;;;1.57;;
16665;SDS011;8446;50.998;6.250;2023-04-03T14:03:19;1.63;;;1.27;;
16665;SDS011;8446;50.998;6.250;2023-04-03T14:05:48;4.97;;;1.13;;
16665;SDS011;8446;50.998;6.250;2023-04-03T14:08:15;2.83;;;1.30;;
16665;SDS011;8446;50.998;6.250;2023-04-03T14:10:42;3.13;;;1.20;;
16665;SDS011;8446;50.998;6.250;2023-04-03T14:13:11;1.77;;;1.10;;
16665;SDS011;8446;50.998;6.250;2023-04-03T14:15:39;1.37;;;1.27;;
16665;SDS011;8446;50.998;6.250;2023-04-03T14:18:09;1.83;;;1.00;;
16665;SDS011;8446;50.998;6.250;2023-04-03T14:20:36;1.50;;;1.20;;
16665;SDS011;8446;50.998;6.250;2023-04-03T14:23:05;6.07;;;1.50;;
16665;SDS011;8446;50.998;6.250;2023-04-03T14:25:32;1.30;;;1.20;;
16665;SDS011;8446;50.998;6.250;2023-04-03T14:28:00;2.43;;;1.07;;
16665;SDS011;8446;50.998;6.250;2023-04-03T14:30:27;1.93;;;0.97;;
16665;SDS011;8446;50.998;6.250;2023-04-03T14:32:55;1.40;;;1.00;;
16665;SDS011;8446;50.998;6.250;2023-04-03T14:35:22;1.13;;;1.00;;
16665;SDS011;8446;50.998;6.250;2023-04-03T14:37:50;14.03;;;1.60;;
16665;SDS011;8446;50.998;6.250;2023-04-03T14:40:20;1.50;;;1.17;;
16665;SDS011;8446;50.998;6.250;2023-04-03T14:42:49;2.43;;;1.30;;
16665;SDS011;8446;50.998;6.250;2023-04-03T14:45:20;3.20;;;1.47;;
16665;SDS011;8446;50.998;6.250;2023-04-03T14:47:48;2.90;;;1.20;;
16665;SDS011;8446;50.998;6.250;2023-04-03T14:50:17;2.17;;;1.10;;
16665;SDS011;8446;50.998;6.250;2023-04-03T14:52:46;3.03;;;1.37;;
16665;SDS011;8446;50.998;6.250;2023-04-03T14:55:14;4.27;;;1.83;;
16665;SDS011;8446;50.998;6.250;2023-04-03T14:57:43;2.20;;;1.07;;
16665;SDS011;8446;50.998;6.250;2023-04-03T15:00:12;6.90;;;1.40;;
16665;SDS011;8446;50.998;6.250;2023-04-03T15:02:40;1.27;;;1.17;;
16665;SDS011;8446;50.998;6.250;2023-04-03T15:05:07;1.87;;;1.10;;
16665;SDS011;8446;50.998;6.250;2023-04-03T15:07:36;3.37;;;1.37;;
16665;SDS011;8446;50.998;6.250;2023-04-03T15:10:09;5.73;;;1.47;;
16665;SDS011;8446;50.998;6.250;2023-04-03T15:12:40;3.23;;;1.50;;
16665;SDS011;8446;50.998;6.250;2023-04-03T15:15:09;2.40;;;1.40;;
16665;SDS011;8446;50.998;6.250;2023-04-03T15:17:36;2.07;;;1.20;;
16665;SDS011;8446;50.998;6.250;2023-04-03T15:20:05;2.77;;;2.27;;
16665;SDS011;8446;50.998;6.250;2023-04-03T15:22:37;4.07;;;1.40;;
16665;SDS011;8446;50.998;6.250;2023-04-03T15:25:05;3.60;;;1.23;;
16665;SDS011;8446;50.998;6.250;2023-04-03T15:27:32;2.97;;;1.30;;